sensor_id;sensor_type;location;lat;lon;timestamp;P1;durP1;ratioP1;P2;durP2;ratioP2
75520;SDS011;64102;48.628;9.002;2024-01-11T00:00:11;18.97;;;4.27;;
75520;SDS011;64102;48.628;9.002;2024-01-11T00:02:37;16.90;;;3.67;;
75520;SDS011;64102;48.628;9.002;2024-01-11T00:05:02;17.60;;;3.75;;
75520;SDS011;64102;48.628;9.002;2024-01-11T00:07:27;18.40;;;2.67;;
75520;SDS011;64102;48.628;9.002;2024-01-11T00:09:53;23.10;;;4.83;;
75520;SDS011;64102;48.628;9.002;2024-01-11T00:12:18;14.80;;;4.00;;
75520;SDS011;64102;48.628;9.002;2024-01-11T00:14:44;18.60;;;2.90;;
75520;SDS011;64102;48.628;9.002;2024-01-11T00:17:09;14.73;;;3.27;;
75520;SDS011;64102;48.628;9.002;2024-01-11T00:19:34;19.80;;;4.10;;
75520;SDS011;64102;48.628;9.002;2024-01-11T00:22:00;16.40;;;2.80;;
75520;SDS011;64102;48.628;9.002;2024-01-11T00:24:25;10.97;;;2.47;;
75520;SDS011;64102;48.628;9.002;2024-01-11T00:26:50;14.55;;;3.92;;
75520;SDS011;64102;48.628;9.002;2024-01-11T00:29:16;13.30;;;3.83;;
75520;SDS011;64102;48.628;9.002;2024-01-11T00:31:41;12.15;;;2.30;;
75520;SDS011;64102;48.628;9.002;2024-01-11T00:34:07;19.40;;;4.20;;
75520;SDS011;64102;48.628;9.002;2024-01-11T00:36:32;16.77;;;2.63;;
75520;SDS011;64102;48.628;9.002;2024-01-11T00:39:01;12.68;;;2.63;;
75520;SDS011;64102;48.628;9.002;2024-01-11T00:41:27;12.60;;;3.30;;
75520;SDS011;64102;48.628;9.002;2024-01-11T00:43:52;14.67;;;3.23;;
75520;SDS011;64102;48.628;9.002;2024-01-11T00:46:17;18.05;;;4.28;;
75520;SDS011;64102;48.628;9.002;2024-01-11T00:48:43;18.40;;;3.50;;
75520;SDS011;64102;48.628;9.002;2024-01-11T00:51:08;19.77;;;4.43;;
75520;SDS011;64102;48.628;9.002;2024-01-11T00:53:33;13.93;;;2.87;;
75520;SDS011;64102;48.628;9.002;2024-01-11T00:55:59;16.50;;;3.90;;
75520;SDS011;64102;48.628;9.002;2024-01-11T00:58:25;16.50;;;3.20;;
75520;SDS011;64102;48.628;9.002;2024-01-11T01:00:50;18.60;;;4.30;;
75520;SDS011;64102;48.628;9.002;2024-01-11T01:03:17;12.93;;;2.35;;
75520;SDS011;64102;48.628;9.002;2024-01-11T01:05:43;12.02;;;2.72;;
75520;SDS011;64102;48.628;9.002;2024-01-11T01:08:09;16.13;;;3.75;;
75520;SDS011;64102;48.628;9.002;2024-01-11T01:10:35;14.05;;;3.63;;
75520;SDS011;64102;48.628;9.002;2024-01-11T01:13:00;18.20;;;3.93;;
75520;SDS011;64102;48.628;9.002;2024-01-11T01:15:25;14.13;;;3.17;;
75520;SDS011;64102;48.628;9.002;2024-01-11T01:17:51;13.37;;;3.53;;
75520;SDS011;64102;48.628;9.002;2024-01-11T01:23:25;12.98;;;2.33;;
75520;SDS011;64102;48.628;9.002;2024-01-11T01:25:51;21.50;;;4.03;;
75520;SDS011;64102;48.628;9.002;2024-01-11T01:28:16;14.38;;;3.20;;
75520;SDS011;64102;48.628;9.002;2024-01-11T01:30:41;19.33;;;3.10;;
75520;SDS011;64102;48.628;9.002;2024-01-11T01:33:07;17.95;;;3.08;;
75520;SDS011;64102;48.628;9.002;2024-01-11T01:35:32;13.40;;;2.63;;
75520;SDS011;64102;48.628;9.002;2024-01-11T01:37:59;17.27;;;3.15;;
75520;SDS011;64102;48.628;9.002;2024-01-11T01:40:24;18.73;;;4.67;;
75520;SDS011;64102;48.628;9.002;2024-01-11T01:42:57;16.63;;;2.70;;
75520;SDS011;64102;48.628;9.002;2024-01-11T01:45:23;22.02;;;4.32;;
75520;SDS011;64102;48.628;9.002;2024-01-11T01:47:48;17.07;;;3.20;;
75520;SDS011;64102;48.628;9.002;2024-01-11T01:50:14;12.57;;;2.67;;
75520;SDS011;64102;48.628;9.002;2024-01-11T01:52:39;15.85;;;3.03;;
75520;SDS011;64102;48.628;9.002;2024-01-11T01:55:08;13.98;;;3.35;;
75520;SDS011;64102;48.628;9.002;2024-01-11T01:57:35;17.30;;;4.28;;
75520;SDS011;64102;48.628;9.002;2024-01-11T02:00:02;16.08;;;3.65;;
75520;SDS011;64102;48.628;9.002;2024-01-11T02:02:28;14.70;;;3.60;;
75520;SDS011;64102;48.628;9.002;2024-01-11T02:04:56;20.58;;;3.72;;
75520;SDS011;64102;48.628;9.002;2024-01-11T02:07:22;12.95;;;3.20;;
75520;SDS011;64102;48.628;9.002;2024-01-11T02:09:48;18.40;;;4.38;;
75520;SDS011;64102;48.628;9.002;2024-01-11T02:12:14;17.02;;;3.17;;
75520;SDS011;64102;48.628;9.002;2024-01-11T02:14:40;15.85;;;3.33;;
75520;SDS011;64102;48.628;9.002;2024-01-11T02:17:05;18.05;;;3.10;;
75520;SDS011;64102;48.628;9.002;2024-01-11T02:19:31;18.75;;;4.25;;
75520;SDS011;64102;48.628;9.002;2024-01-11T02:22:00;17.15;;;3.45;;
75520;SDS011;64102;48.628;9.002;2024-01-11T02:24:33;14.20;;;3.88;;
75520;SDS011;64102;48.628;9.002;2024-01-11T02:27:02;14.48;;;3.65;;
75520;SDS011;64102;48.628;9.002;2024-01-11T02:29:29;17.20;;;2.90;;
75520;SDS011;64102;48.628;9.002;2024-01-11T02:31:56;15.15;;;3.63;;
75520;SDS011;64102;48.628;9.002;2024-01-11T02:34:22;18.67;;;3.90;;
75520;SDS011;64102;48.628;9.002;2024-01-11T02:36:49;18.90;;;3.33;;
75520;SDS011;64102;48.628;9.002;2024-01-11T02:39:16;15.30;;;2.88;;
75520;SDS011;64102;48.628;9.002;2024-01-11T02:41:43;16.98;;;2.88;;
75520;SDS011;64102;48.628;9.002;2024-01-11T02:44:09;17.88;;;3.90;;
75520;SDS011;64102;48.628;9.002;2024-01-11T02:46:34;16.00;;;3.70;;
75520;SDS011;64102;48.628;9.002;2024-01-11T02:48:59;17.93;;;3.97;;
75520;SDS011;64102;48.628;9.002;2024-01-11T02:51:25;15.35;;;3.35;;
75520;SDS011;64102;48.628;9.002;2024-01-11T02:53:50;18.13;;;3.37;;
75520;SDS011;64102;48.628;9.002;2024-01-11T02:56:15;18.47;;;2.73;;
75520;SDS011;64102;48.628;9.002;2024-01-11T02:58:41;12.73;;;3.15;;
75520;SDS011;64102;48.628;9.002;2024-01-11T03:01:06;17.60;;;2.83;;
75520;SDS011;64102;48.628;9.002;2024-01-11T03:03:32;24.43;;;3.13;;
75520;SDS011;64102;48.628;9.002;2024-01-11T03:05:57;12.43;;;2.17;;
75520;SDS011;64102;48.628;9.002;2024-01-11T03:08:22;18.63;;;4.40;;
75520;SDS011;64102;48.628;9.002;2024-01-11T03:10:48;17.20;;;4.22;;
75520;SDS011;64102;48.628;9.002;2024-01-11T03:13:13;15.13;;;3.53;;
75520;SDS011;64102;48.628;9.002;2024-01-11T03:15:38;16.23;;;3.37;;
75520;SDS011;64102;48.628;9.002;2024-01-11T03:18:04;12.45;;;1.92;;
75520;SDS011;64102;48.628;9.002;2024-01-11T03:20:29;16.33;;;3.88;;
75520;SDS011;64102;48.628;9.002;2024-01-11T03:22:55;21.65;;;3.80;;
75520;SDS011;64102;48.628;9.002;2024-01-11T03:25:20;17.77;;;3.07;;
75520;SDS011;64102;48.628;9.002;2024-01-11T03:27:45;13.60;;;3.07;;
75520;SDS011;64102;48.628;9.002;2024-01-11T03:30:11;15.77;;;1.97;;
75520;SDS011;64102;48.628;9.002;2024-01-11T03:32:37;16.10;;;2.78;;
75520;SDS011;64102;48.628;9.002;2024-01-11T03:35:04;13.80;;;3.28;;
75520;SDS011;64102;48.628;9.002;2024-01-11T03:37:31;15.55;;;2.55;;
75520;SDS011;64102;48.628;9.002;2024-01-11T03:39:56;12.37;;;2.43;;
75520;SDS011;64102;48.628;9.002;2024-01-11T03:42:21;14.60;;;3.33;;
75520;SDS011;64102;48.628;9.002;2024-01-11T03:44:47;17.77;;;2.28;;
75520;SDS011;64102;48.628;9.002;2024-01-11T03:47:12;13.07;;;2.00;;
75520;SDS011;64102;48.628;9.002;2024-01-11T03:49:37;18.33;;;3.57;;
75520;SDS011;64102;48.628;9.002;2024-01-11T03:52:03;17.17;;;3.30;;
75520;SDS011;64102;48.628;9.002;2024-01-11T03:54:29;14.15;;;2.63;;
75520;SDS011;64102;48.628;9.002;2024-01-11T03:56:54;14.50;;;2.50;;
75520;SDS011;64102;48.628;9.002;2024-01-11T03:59:19;13.97;;;2.90;;
75520;SDS011;64102;48.628;9.002;2024-01-11T04:01:45;12.37;;;3.40;;
75520;SDS011;64102;48.628;9.002;2024-01-11T04:04:10;16.73;;;4.27;;
75520;SDS011;64102;48.628;9.002;2024-01-11T04:06:35;14.97;;;2.63;;
75520;SDS011;64102;48.628;9.002;2024-01-11T04:09:01;16.98;;;3.40;;
75520;SDS011;64102;48.628;9.002;2024-01-11T04:11:29;14.57;;;3.20;;
75520;SDS011;64102;48.628;9.002;2024-01-11T04:13:54;15.30;;;3.75;;
75520;SDS011;64102;48.628;9.002;2024-01-11T04:16:20;13.90;;;3.25;;
75520;SDS011;64102;48.628;9.002;2024-01-11T04:18:46;10.98;;;2.53;;
75520;SDS011;64102;48.628;9.002;2024-01-11T04:21:24;15.18;;;4.63;;
75520;SDS011;64102;48.628;9.002;2024-01-11T04:23:53;14.43;;;3.10;;
75520;SDS011;64102;48.628;9.002;2024-01-11T04:26:20;20.33;;;2.78;;
75520;SDS011;64102;48.628;9.002;2024-01-11T04:28:45;16.13;;;2.80;;
75520;SDS011;64102;48.628;9.002;2024-01-11T04:31:12;15.50;;;2.92;;
75520;SDS011;64102;48.628;9.002;2024-01-11T04:33:41;16.60;;;3.17;;
75520;SDS011;64102;48.628;9.002;2024-01-11T04:36:10;22.92;;;4.68;;
75520;SDS011;64102;48.628;9.002;2024-01-11T04:38:36;14.05;;;3.25;;
75520;SDS011;64102;48.628;9.002;2024-01-11T04:41:08;17.88;;;3.58;;
75520;SDS011;64102;48.628;9.002;2024-01-11T04:43:37;17.88;;;3.83;;
75520;SDS011;64102;48.628;9.002;2024-01-11T04:46:12;19.30;;;3.20;;
75520;SDS011;64102;48.628;9.002;2024-01-11T04:48:47;16.38;;;3.03;;
75520;SDS011;64102;48.628;9.002;2024-01-11T04:51:14;16.77;;;2.63;;
75520;SDS011;64102;48.628;9.002;2024-01-11T04:53:40;9.85;;;2.03;;
75520;SDS011;64102;48.628;9.002;2024-01-11T04:56:06;15.48;;;3.25;;
75520;SDS011;64102;48.628;9.002;2024-01-11T04:58:32;19.58;;;5.20;;
75520;SDS011;64102;48.628;9.002;2024-01-11T05:00:58;10.68;;;2.22;;
75520;SDS011;64102;48.628;9.002;2024-01-11T05:03:23;17.48;;;4.60;;
75520;SDS011;64102;48.628;9.002;2024-01-11T05:05:49;18.37;;;3.60;;
75520;SDS011;64102;48.628;9.002;2024-01-11T05:08:14;13.50;;;2.50;;
75520;SDS011;64102;48.628;9.002;2024-01-11T05:10:39;13.43;;;2.23;;
75520;SDS011;64102;48.628;9.002;2024-01-11T05:13:05;17.03;;;4.17;;
75520;SDS011;64102;48.628;9.002;2024-01-11T05:15:30;13.10;;;2.53;;
75520;SDS011;64102;48.628;9.002;2024-01-11T05:17:55;16.27;;;3.33;;
75520;SDS011;64102;48.628;9.002;2024-01-11T05:20:23;13.75;;;4.00;;
75520;SDS011;64102;48.628;9.002;2024-01-11T05:22:49;12.30;;;2.75;;
75520;SDS011;64102;48.628;9.002;2024-01-11T05:25:14;14.25;;;2.88;;
75520;SDS011;64102;48.628;9.002;2024-01-11T05:27:39;16.17;;;3.53;;
75520;SDS011;64102;48.628;9.002;2024-01-11T05:30:05;13.87;;;3.20;;
75520;SDS011;64102;48.628;9.002;2024-01-11T05:32:31;14.05;;;3.55;;
75520;SDS011;64102;48.628;9.002;2024-01-11T05:34:56;16.47;;;3.37;;
75520;SDS011;64102;48.628;9.002;2024-01-11T05:37:22;14.60;;;3.15;;
75520;SDS011;64102;48.628;9.002;2024-01-11T05:39:47;16.25;;;2.47;;
75520;SDS011;64102;48.628;9.002;2024-01-11T05:42:12;24.20;;;3.63;;
75520;SDS011;64102;48.628;9.002;2024-01-11T05:44:38;18.85;;;4.53;;
75520;SDS011;64102;48.628;9.002;2024-01-11T05:47:03;13.98;;;2.70;;
75520;SDS011;64102;48.628;9.002;2024-01-11T05:49:29;13.27;;;2.25;;
75520;SDS011;64102;48.628;9.002;2024-01-11T05:51:54;19.75;;;4.97;;
75520;SDS011;64102;48.628;9.002;2024-01-11T05:54:20;15.67;;;3.27;;
75520;SDS011;64102;48.628;9.002;2024-01-11T05:56:45;17.67;;;3.25;;
75520;SDS011;64102;48.628;9.002;2024-01-11T05:59:10;13.03;;;2.83;;
75520;SDS011;64102;48.628;9.002;2024-01-11T06:01:43;20.57;;;3.50;;
75520;SDS011;64102;48.628;9.002;2024-01-11T06:04:08;14.27;;;3.53;;
75520;SDS011;64102;48.628;9.002;2024-01-11T06:06:34;13.60;;;4.53;;
75520;SDS011;64102;48.628;9.002;2024-01-11T06:08:59;22.77;;;5.47;;
75520;SDS011;64102;48.628;9.002;2024-01-11T06:11:24;24.70;;;4.47;;
75520;SDS011;64102;48.628;9.002;2024-01-11T06:13:50;16.30;;;4.23;;
75520;SDS011;64102;48.628;9.002;2024-01-11T06:16:15;26.08;;;6.15;;
75520;SDS011;64102;48.628;9.002;2024-01-11T06:18:40;22.50;;;4.88;;
75520;SDS011;64102;48.628;9.002;2024-01-11T06:21:06;27.98;;;6.15;;
75520;SDS011;64102;48.628;9.002;2024-01-11T06:23:31;32.85;;;8.73;;
75520;SDS011;64102;48.628;9.002;2024-01-11T06:25:56;17.40;;;3.50;;
75520;SDS011;64102;48.628;9.002;2024-01-11T06:28:22;31.83;;;6.67;;
75520;SDS011;64102;48.628;9.002;2024-01-11T06:30:47;33.33;;;8.20;;
75520;SDS011;64102;48.628;9.002;2024-01-11T06:33:12;16.10;;;3.03;;
75520;SDS011;64102;48.628;9.002;2024-01-11T06:35:38;19.73;;;4.63;;
75520;SDS011;64102;48.628;9.002;2024-01-11T06:38:03;20.37;;;4.13;;
75520;SDS011;64102;48.628;9.002;2024-01-11T06:40:28;19.50;;;4.20;;
75520;SDS011;64102;48.628;9.002;2024-01-11T06:42:54;19.73;;;4.20;;
75520;SDS011;64102;48.628;9.002;2024-01-11T06:45:19;20.23;;;4.90;;
75520;SDS011;64102;48.628;9.002;2024-01-11T06:47:45;39.73;;;10.10;;
75520;SDS011;64102;48.628;9.002;2024-01-11T06:50:14;17.92;;;3.63;;
75520;SDS011;64102;48.628;9.002;2024-01-11T06:52:39;21.95;;;3.47;;
75520;SDS011;64102;48.628;9.002;2024-01-11T06:55:05;15.77;;;4.37;;
75520;SDS011;64102;48.628;9.002;2024-01-11T06:57:31;16.00;;;3.28;;
75520;SDS011;64102;48.628;9.002;2024-01-11T06:59:56;15.55;;;3.80;;
75520;SDS011;64102;48.628;9.002;2024-01-11T07:02:21;21.60;;;4.07;;
75520;SDS011;64102;48.628;9.002;2024-01-11T07:04:47;17.58;;;4.05;;
75520;SDS011;64102;48.628;9.002;2024-01-11T07:07:12;9.57;;;2.87;;
75520;SDS011;64102;48.628;9.002;2024-01-11T07:09:38;17.83;;;3.83;;
75520;SDS011;64102;48.628;9.002;2024-01-11T07:12:03;19.65;;;3.88;;
75520;SDS011;64102;48.628;9.002;2024-01-11T07:14:29;14.63;;;4.22;;
75520;SDS011;64102;48.628;9.002;2024-01-11T07:16:55;12.47;;;4.27;;
75520;SDS011;64102;48.628;9.002;2024-01-11T07:19:20;41.73;;;9.63;;
75520;SDS011;64102;48.628;9.002;2024-01-11T07:21:45;39.47;;;10.43;;
75520;SDS011;64102;48.628;9.002;2024-01-11T07:24:11;21.43;;;6.57;;
75520;SDS011;64102;48.628;9.002;2024-01-11T07:26:36;18.77;;;5.05;;
75520;SDS011;64102;48.628;9.002;2024-01-11T07:29:02;18.10;;;4.15;;
75520;SDS011;64102;48.628;9.002;2024-01-11T07:31:27;12.98;;;3.33;;
75520;SDS011;64102;48.628;9.002;2024-01-11T07:33:53;18.83;;;5.45;;
75520;SDS011;64102;48.628;9.002;2024-01-11T07:36:18;13.93;;;4.45;;
75520;SDS011;64102;48.628;9.002;2024-01-11T07:38:43;19.07;;;4.80;;
75520;SDS011;64102;48.628;9.002;2024-01-11T07:41:09;15.30;;;4.75;;
75520;SDS011;64102;48.628;9.002;2024-01-11T07:43:34;17.75;;;5.13;;
75520;SDS011;64102;48.628;9.002;2024-01-11T07:46:01;19.90;;;4.53;;
75520;SDS011;64102;48.628;9.002;2024-01-11T07:48:27;15.88;;;3.53;;
75520;SDS011;64102;48.628;9.002;2024-01-11T07:50:52;14.50;;;3.72;;
75520;SDS011;64102;48.628;9.002;2024-01-11T07:53:17;21.37;;;4.63;;
75520;SDS011;64102;48.628;9.002;2024-01-11T07:55:44;16.17;;;3.40;;
75520;SDS011;64102;48.628;9.002;2024-01-11T07:58:12;14.35;;;2.90;;
75520;SDS011;64102;48.628;9.002;2024-01-11T08:00:38;19.10;;;4.05;;
75520;SDS011;64102;48.628;9.002;2024-01-11T08:03:04;19.08;;;4.55;;
75520;SDS011;64102;48.628;9.002;2024-01-11T08:05:29;26.33;;;6.13;;
75520;SDS011;64102;48.628;9.002;2024-01-11T08:07:54;27.27;;;6.30;;
75520;SDS011;64102;48.628;9.002;2024-01-11T08:10:20;27.45;;;6.80;;
75520;SDS011;64102;48.628;9.002;2024-01-11T08:12:45;24.30;;;6.57;;
75520;SDS011;64102;48.628;9.002;2024-01-11T08:15:10;23.93;;;6.23;;
75520;SDS011;64102;48.628;9.002;2024-01-11T08:17:39;27.50;;;6.80;;
75520;SDS011;64102;48.628;9.002;2024-01-11T08:20:09;28.05;;;7.47;;
75520;SDS011;64102;48.628;9.002;2024-01-11T08:22:36;24.77;;;7.03;;
75520;SDS011;64102;48.628;9.002;2024-01-11T08:25:04;24.52;;;6.97;;
75520;SDS011;64102;48.628;9.002;2024-01-11T08:27:30;27.92;;;7.65;;
75520;SDS011;64102;48.628;9.002;2024-01-11T08:29:58;25.65;;;7.53;;
75520;SDS011;64102;48.628;9.002;2024-01-11T08:32:25;24.63;;;6.90;;
75520;SDS011;64102;48.628;9.002;2024-01-11T08:34:50;27.80;;;6.73;;
75520;SDS011;64102;48.628;9.002;2024-01-11T08:37:15;26.50;;;7.67;;
75520;SDS011;64102;48.628;9.002;2024-01-11T08:39:41;32.22;;;8.90;;
75520;SDS011;64102;48.628;9.002;2024-01-11T08:42:06;31.27;;;8.77;;
75520;SDS011;64102;48.628;9.002;2024-01-11T08:44:32;28.65;;;8.55;;
75520;SDS011;64102;48.628;9.002;2024-01-11T08:46:57;27.60;;;7.53;;
75520;SDS011;64102;48.628;9.002;2024-01-11T08:49:24;26.90;;;7.72;;
75520;SDS011;64102;48.628;9.002;2024-01-11T08:51:50;26.17;;;7.72;;
75520;SDS011;64102;48.628;9.002;2024-01-11T08:54:15;25.67;;;7.97;;
75520;SDS011;64102;48.628;9.002;2024-01-11T08:56:41;29.98;;;9.68;;
75520;SDS011;64102;48.628;9.002;2024-01-11T08:59:07;28.40;;;8.57;;
75520;SDS011;64102;48.628;9.002;2024-01-11T09:01:34;27.70;;;8.75;;
75520;SDS011;64102;48.628;9.002;2024-01-11T09:04:01;25.25;;;8.38;;
75520;SDS011;64102;48.628;9.002;2024-01-11T09:06:26;27.38;;;8.27;;
75520;SDS011;64102;48.628;9.002;2024-01-11T09:08:52;29.10;;;9.50;;
75520;SDS011;64102;48.628;9.002;2024-01-11T09:11:18;27.23;;;8.55;;
75520;SDS011;64102;48.628;9.002;2024-01-11T09:13:43;26.60;;;8.75;;
75520;SDS011;64102;48.628;9.002;2024-01-11T09:16:08;30.37;;;9.43;;
75520;SDS011;64102;48.628;9.002;2024-01-11T09:18:34;28.88;;;9.25;;
75520;SDS011;64102;48.628;9.002;2024-01-11T09:21:00;28.05;;;8.82;;
75520;SDS011;64102;48.628;9.002;2024-01-11T09:23:25;28.70;;;9.05;;
75520;SDS011;64102;48.628;9.002;2024-01-11T09:25:51;25.53;;;7.90;;
75520;SDS011;64102;48.628;9.002;2024-01-11T09:28:16;26.38;;;9.57;;
75520;SDS011;64102;48.628;9.002;2024-01-11T09:30:41;28.17;;;8.97;;
75520;SDS011;64102;48.628;9.002;2024-01-11T09:33:07;27.70;;;8.85;;
75520;SDS011;64102;48.628;9.002;2024-01-11T09:35:32;28.20;;;8.70;;
75520;SDS011;64102;48.628;9.002;2024-01-11T09:37:57;33.53;;;10.53;;
75520;SDS011;64102;48.628;9.002;2024-01-11T09:40:23;31.83;;;10.20;;
75520;SDS011;64102;48.628;9.002;2024-01-11T09:42:48;30.77;;;9.63;;
75520;SDS011;64102;48.628;9.002;2024-01-11T09:45:14;28.95;;;9.50;;
75520;SDS011;64102;48.628;9.002;2024-01-11T09:47:41;29.00;;;8.52;;
75520;SDS011;64102;48.628;9.002;2024-01-11T09:50:07;27.55;;;9.07;;
75520;SDS011;64102;48.628;9.002;2024-01-11T09:52:33;28.70;;;9.65;;
75520;SDS011;64102;48.628;9.002;2024-01-11T09:54:59;26.60;;;8.15;;
75520;SDS011;64102;48.628;9.002;2024-01-11T09:57:26;29.25;;;8.98;;
75520;SDS011;64102;48.628;9.002;2024-01-11T09:59:55;27.23;;;9.27;;
75520;SDS011;64102;48.628;9.002;2024-01-11T10:02:22;28.58;;;9.52;;
75520;SDS011;64102;48.628;9.002;2024-01-11T10:04:49;28.67;;;9.68;;
75520;SDS011;64102;48.628;9.002;2024-01-11T10:07:14;31.90;;;9.23;;
75520;SDS011;64102;48.628;9.002;2024-01-11T10:09:43;26.92;;;9.20;;
75520;SDS011;64102;48.628;9.002;2024-01-11T10:12:09;26.20;;;8.93;;
75520;SDS011;64102;48.628;9.002;2024-01-11T10:14:35;26.73;;;8.90;;
75520;SDS011;64102;48.628;9.002;2024-01-11T10:17:00;32.67;;;10.07;;
75520;SDS011;64102;48.628;9.002;2024-01-11T10:19:26;29.90;;;9.13;;
75520;SDS011;64102;48.628;9.002;2024-01-11T10:21:52;29.17;;;9.40;;
75520;SDS011;64102;48.628;9.002;2024-01-11T10:24:18;27.77;;;8.90;;
75520;SDS011;64102;48.628;9.002;2024-01-11T10:26:45;26.27;;;7.32;;
75520;SDS011;64102;48.628;9.002;2024-01-11T10:29:10;24.55;;;8.88;;
75520;SDS011;64102;48.628;9.002;2024-01-11T10:31:37;34.00;;;9.93;;
75520;SDS011;64102;48.628;9.002;2024-01-11T10:34:03;26.50;;;7.82;;
75520;SDS011;64102;48.628;9.002;2024-01-11T10:36:30;26.50;;;8.73;;
75520;SDS011;64102;48.628;9.002;2024-01-11T10:38:56;23.83;;;8.23;;
75520;SDS011;64102;48.628;9.002;2024-01-11T10:41:24;25.35;;;8.48;;
75520;SDS011;64102;48.628;9.002;2024-01-11T10:43:51;29.05;;;9.65;;
75520;SDS011;64102;48.628;9.002;2024-01-11T10:46:18;31.00;;;9.93;;
75520;SDS011;64102;48.628;9.002;2024-01-11T10:48:51;27.05;;;10.43;;
75520;SDS011;64102;48.628;9.002;2024-01-11T10:51:20;27.73;;;9.25;;
75520;SDS011;64102;48.628;9.002;2024-01-11T10:53:49;28.45;;;10.20;;
75520;SDS011;64102;48.628;9.002;2024-01-11T10:56:15;26.80;;;10.18;;
75520;SDS011;64102;48.628;9.002;2024-01-11T10:58:42;27.08;;;10.43;;
75520;SDS011;64102;48.628;9.002;2024-01-11T11:01:11;28.73;;;11.13;;
75520;SDS011;64102;48.628;9.002;2024-01-11T11:03:38;26.00;;;10.38;;
75520;SDS011;64102;48.628;9.002;2024-01-11T11:06:06;29.27;;;11.32;;
75520;SDS011;64102;48.628;9.002;2024-01-11T11:08:34;31.73;;;12.43;;
75520;SDS011;64102;48.628;9.002;2024-01-11T11:11:02;30.33;;;12.00;;
75520;SDS011;64102;48.628;9.002;2024-01-11T11:13:32;30.27;;;11.50;;
75520;SDS011;64102;48.628;9.002;2024-01-11T11:16:00;31.38;;;11.35;;
75520;SDS011;64102;48.628;9.002;2024-01-11T11:18:25;31.83;;;11.15;;
75520;SDS011;64102;48.628;9.002;2024-01-11T11:20:51;29.13;;;10.93;;
75520;SDS011;64102;48.628;9.002;2024-01-11T11:23:17;28.23;;;10.65;;
75520;SDS011;64102;48.628;9.002;2024-01-11T11:25:47;31.83;;;11.48;;
75520;SDS011;64102;48.628;9.002;2024-01-11T11:28:14;27.95;;;11.30;;
75520;SDS011;64102;48.628;9.002;2024-01-11T11:30:42;29.55;;;12.05;;
75520;SDS011;64102;48.628;9.002;2024-01-11T11:33:16;27.02;;;9.95;;
75520;SDS011;64102;48.628;9.002;2024-01-11T11:35:46;32.97;;;11.65;;
75520;SDS011;64102;48.628;9.002;2024-01-11T11:38:19;26.48;;;10.93;;
75520;SDS011;64102;48.628;9.002;2024-01-11T11:40:47;26.38;;;10.57;;
75520;SDS011;64102;48.628;9.002;2024-01-11T11:43:15;28.15;;;10.60;;
75520;SDS011;64102;48.628;9.002;2024-01-11T11:45:41;31.10;;;11.55;;
75520;SDS011;64102;48.628;9.002;2024-01-11T11:49:07;30.08;;;10.40;;
75520;SDS011;64102;48.628;9.002;2024-01-11T11:51:11;32.78;;;11.70;;
75520;SDS011;64102;48.628;9.002;2024-01-11T11:53:40;28.73;;;10.50;;
75520;SDS011;64102;48.628;9.002;2024-01-11T11:56:06;29.20;;;10.15;;
75520;SDS011;64102;48.628;9.002;2024-01-11T11:58:42;28.55;;;11.52;;
75520;SDS011;64102;48.628;9.002;2024-01-11T12:01:08;26.30;;;9.52;;
75520;SDS011;64102;48.628;9.002;2024-01-11T12:03:34;25.08;;;10.80;;
75520;SDS011;64102;48.628;9.002;2024-01-11T12:06:09;27.02;;;10.60;;
75520;SDS011;64102;48.628;9.002;2024-01-11T12:08:35;26.88;;;9.70;;
75520;SDS011;64102;48.628;9.002;2024-01-11T12:11:01;28.08;;;10.30;;
75520;SDS011;64102;48.628;9.002;2024-01-11T12:13:28;26.02;;;9.60;;
75520;SDS011;64102;48.628;9.002;2024-01-11T12:15:53;29.35;;;10.93;;
75520;SDS011;64102;48.628;9.002;2024-01-11T12:18:20;24.60;;;8.80;;
75520;SDS011;64102;48.628;9.002;2024-01-11T12:20:45;26.80;;;9.30;;
75520;SDS011;64102;48.628;9.002;2024-01-11T12:23:11;28.45;;;8.57;;
75520;SDS011;64102;48.628;9.002;2024-01-11T12:25:38;24.77;;;8.93;;
75520;SDS011;64102;48.628;9.002;2024-01-11T12:28:05;25.05;;;9.15;;
75520;SDS011;64102;48.628;9.002;2024-01-11T12:30:31;23.95;;;7.80;;
75520;SDS011;64102;48.628;9.002;2024-01-11T12:32:56;24.63;;;8.15;;
75520;SDS011;64102;48.628;9.002;2024-01-11T12:35:22;25.30;;;8.50;;
75520;SDS011;64102;48.628;9.002;2024-01-11T12:37:55;23.58;;;8.07;;
75520;SDS011;64102;48.628;9.002;2024-01-11T12:40:24;23.60;;;7.68;;
75520;SDS011;64102;48.628;9.002;2024-01-11T12:42:52;23.10;;;7.70;;
75520;SDS011;64102;48.628;9.002;2024-01-11T12:45:19;25.63;;;9.05;;
75520;SDS011;64102;48.628;9.002;2024-01-11T12:47:44;29.35;;;9.07;;
75520;SDS011;64102;48.628;9.002;2024-01-11T12:50:11;23.50;;;8.70;;
75520;SDS011;64102;48.628;9.002;2024-01-11T12:52:39;25.63;;;9.35;;
75520;SDS011;64102;48.628;9.002;2024-01-11T12:55:07;25.08;;;7.90;;
75520;SDS011;64102;48.628;9.002;2024-01-11T12:57:33;26.67;;;9.50;;
75520;SDS011;64102;48.628;9.002;2024-01-11T13:00:09;25.98;;;8.80;;
75520;SDS011;64102;48.628;9.002;2024-01-11T13:02:35;25.55;;;9.60;;
75520;SDS011;64102;48.628;9.002;2024-01-11T13:05:01;22.25;;;8.57;;
75520;SDS011;64102;48.628;9.002;2024-01-11T13:07:27;29.42;;;10.15;;
75520;SDS011;64102;48.628;9.002;2024-01-11T13:09:53;30.63;;;10.52;;
75520;SDS011;64102;48.628;9.002;2024-01-11T13:12:18;25.60;;;9.35;;
75520;SDS011;64102;48.628;9.002;2024-01-11T13:14:45;24.80;;;9.40;;
75520;SDS011;64102;48.628;9.002;2024-01-11T13:17:11;21.80;;;8.35;;
75520;SDS011;64102;48.628;9.002;2024-01-11T13:19:36;26.13;;;9.10;;
75520;SDS011;64102;48.628;9.002;2024-01-11T13:22:03;24.50;;;8.48;;
75520;SDS011;64102;48.628;9.002;2024-01-11T13:24:28;23.97;;;7.77;;
75520;SDS011;64102;48.628;9.002;2024-01-11T13:26:54;25.50;;;8.03;;
75520;SDS011;64102;48.628;9.002;2024-01-11T13:29:20;25.00;;;7.70;;
75520;SDS011;64102;48.628;9.002;2024-01-11T13:31:45;26.03;;;7.57;;
75520;SDS011;64102;48.628;9.002;2024-01-11T13:34:10;23.43;;;8.20;;
75520;SDS011;64102;48.628;9.002;2024-01-11T13:36:36;20.10;;;5.67;;
75520;SDS011;64102;48.628;9.002;2024-01-11T13:39:01;22.50;;;7.93;;
75520;SDS011;64102;48.628;9.002;2024-01-11T13:41:28;21.67;;;7.60;;
75520;SDS011;64102;48.628;9.002;2024-01-11T13:43:53;24.53;;;8.87;;
75520;SDS011;64102;48.628;9.002;2024-01-11T13:46:19;27.15;;;8.43;;
75520;SDS011;64102;48.628;9.002;2024-01-11T13:48:45;25.92;;;8.45;;
75520;SDS011;64102;48.628;9.002;2024-01-11T13:51:11;23.63;;;8.67;;
75520;SDS011;64102;48.628;9.002;2024-01-11T13:53:38;26.30;;;8.35;;
75520;SDS011;64102;48.628;9.002;2024-01-11T13:56:03;22.83;;;7.88;;
75520;SDS011;64102;48.628;9.002;2024-01-11T13:58:29;25.13;;;7.80;;
75520;SDS011;64102;48.628;9.002;2024-01-11T14:00:54;24.23;;;8.18;;
75520;SDS011;64102;48.628;9.002;2024-01-11T14:03:20;23.30;;;7.60;;
75520;SDS011;64102;48.628;9.002;2024-01-11T14:05:45;21.80;;;6.20;;
75520;SDS011;64102;48.628;9.002;2024-01-11T14:08:10;16.63;;;5.13;;
75520;SDS011;64102;48.628;9.002;2024-01-11T14:10:36;23.00;;;8.27;;
75520;SDS011;64102;48.628;9.002;2024-01-11T14:13:02;20.93;;;6.57;;
75520;SDS011;64102;48.628;9.002;2024-01-11T14:15:28;24.55;;;8.20;;
75520;SDS011;64102;48.628;9.002;2024-01-11T14:17:53;22.95;;;8.27;;
75520;SDS011;64102;48.628;9.002;2024-01-11T14:20:19;23.95;;;7.72;;
75520;SDS011;64102;48.628;9.002;2024-01-11T14:22:46;23.40;;;6.68;;
75520;SDS011;64102;48.628;9.002;2024-01-11T14:25:14;25.58;;;7.72;;
75520;SDS011;64102;48.628;9.002;2024-01-11T14:27:40;23.48;;;7.57;;
75520;SDS011;64102;48.628;9.002;2024-01-11T14:30:06;26.85;;;8.20;;